Search for airport 
image banner adimage banner adimage banner ad
image banner ad

CL01 - Eagle Field

Located in Dos Palos, United States

ICAO - CL01, IATA -

Data provided by Airmate  

General information

Coordinates: N36°53'60" W120°40'4"
Elevation is 153 feet MSL.
Magnetic variation is 15° East
View others Airports in California

Operational data

Special qualification required
Current time UTC:
Current local time:
Weather at : KMCE - Merced Rgnl/Macready Field ( 45 km )
METAR: KMCE 221353Z AUTO 34009KT 10SM CLR 17/13 A2989 RMK AO2 SLP120 T01670133
TAF: KMCE 221120Z 2212/2312 32008KT P6SM SKC
View NOTAMs / SUP AIP / TFR affecting this airport [VIEW]
Communications frequencies: [VIEW]

Runways:

RWY identifierQFULength (ft)Width (ft)SurfaceLDA (ft)
12230060ASPH
30230060ASPH

Airport contact information

Address: Dos Palos United States

Satellite view of CL01